Hauptseite
METAR-TAF:

METAR-TAF

Flughäfen :

Flughafen Adak

Adak Island, Alaska, Vereinigte Staaten

Breite: 51-52-40N, Länge: 176-38-45W, Höhe: 6 m

Beobachtung

Neuester Wetterbericht von vor 1 Stunde und 12 Minuten, um 05:56 UTC
Windstille
Temperatur -1°C
Luftfeuchtigkeit 69%
Luftdruck 1039 hPa
Sichtweite: 16.1 km
Geschlossene Wolkendecke in der Höhe von 4800 ft

METAR: PADK 280556Z AUTO 00000KT 10SM OVC048 M01/M06 A3067 RMK AO2 SLP385 T10111056 10017 21017 56004 FZRANO $

Zeit: 22:08 (07:08 UTC)


TAF: fehlend

Wetterbeobachtungen und Prognosen von mehr als 4000 Flughäfen (METAR und TAF Bericht).

Die verfügbaren Stationen werden durch gelbe und rote Markierungen auf der Karte dargestellt.

Führen Sie die Maus auf sie, um den Namen der Station zu sehen.

Darauf klicken, um die Beobachtung von Wetterbeobachtungen und Prognosen zu sehen.

Um die Karte zu ändern : klicken Sie auf den grünen Tasten mit einem schwarzen Kreuz Zum Vergrößern, auf den grünen Button mit einem Gedankenstrich zu verkleinern, oder auf die grünen Pfeile für benachbarte Karten.


METAR-TAF: